sensor_id;sensor_type;location;lat;lon;timestamp;P1;durP1;ratioP1;P2;durP2;ratioP2
9422;SDS011;65863;49.506;10.400;2023-06-10T00:00:15;5.53;;;3.97;;
9422;SDS011;65863;49.506;10.400;2023-06-10T00:03:00;6.67;;;4.23;;
9422;SDS011;65863;49.506;10.400;2023-06-10T00:05:45;4.50;;;3.97;;
9422;SDS011;65863;49.506;10.400;2023-06-10T00:08:30;5.23;;;4.20;;
9422;SDS011;65863;49.506;10.400;2023-06-10T00:11:15;6.10;;;4.57;;
9422;SDS011;65863;49.506;10.400;2023-06-10T00:13:59;4.97;;;4.00;;
9422;SDS011;65863;49.506;10.400;2023-06-10T00:16:43;4.90;;;4.40;;
9422;SDS011;65863;49.506;10.400;2023-06-10T00:19:28;5.67;;;5.03;;
9422;SDS011;65863;49.506;10.400;2023-06-10T00:22:13;6.00;;;5.37;;
9422;SDS011;65863;49.506;10.400;2023-06-10T00:24:57;7.13;;;5.53;;
9422;SDS011;65863;49.506;10.400;2023-06-10T00:27:42;6.97;;;5.90;;
9422;SDS011;65863;49.506;10.400;2023-06-10T00:30:26;6.27;;;5.63;;
9422;SDS011;65863;49.506;10.400;2023-06-10T00:33:10;6.93;;;6.10;;
9422;SDS011;65863;49.506;10.400;2023-06-10T00:35:54;8.23;;;6.03;;
9422;SDS011;65863;49.506;10.400;2023-06-10T00:38:39;6.23;;;5.50;;
9422;SDS011;65863;49.506;10.400;2023-06-10T00:41:24;6.47;;;5.30;;
9422;SDS011;65863;49.506;10.400;2023-06-10T00:44:10;6.80;;;5.43;;
9422;SDS011;65863;49.506;10.400;2023-06-10T00:46:54;7.47;;;5.50;;
9422;SDS011;65863;49.506;10.400;2023-06-10T00:49:39;7.00;;;5.53;;
9422;SDS011;65863;49.506;10.400;2023-06-10T00:52:25;5.93;;;5.27;;
9422;SDS011;65863;49.506;10.400;2023-06-10T00:55:12;5.77;;;5.17;;
9422;SDS011;65863;49.506;10.400;2023-06-10T00:57:56;7.40;;;5.83;;
9422;SDS011;65863;49.506;10.400;2023-06-10T01:00:40;6.50;;;5.23;;
9422;SDS011;65863;49.506;10.400;2023-06-10T01:03:25;6.53;;;5.80;;
9422;SDS011;65863;49.506;10.400;2023-06-10T01:06:20;6.00;;;5.40;;
9422;SDS011;65863;49.506;10.400;2023-06-10T01:09:24;8.40;;;6.10;;
9422;SDS011;65863;49.506;10.400;2023-06-10T01:12:59;6.30;;;5.70;;
9422;SDS011;65863;49.506;10.400;2023-06-10T01:15:47;6.23;;;5.63;;
9422;SDS011;65863;49.506;10.400;2023-06-10T01:18:32;6.73;;;6.03;;
9422;SDS011;65863;49.506;10.400;2023-06-10T01:21:20;6.13;;;5.53;;
9422;SDS011;65863;49.506;10.400;2023-06-10T01:24:05;11.13;;;5.87;;
9422;SDS011;65863;49.506;10.400;2023-06-10T01:26:51;6.30;;;5.70;;
9422;SDS011;65863;49.506;10.400;2023-06-10T01:29:43;5.70;;;4.93;;
9422;SDS011;65863;49.506;10.400;2023-06-10T01:32:34;5.97;;;5.30;;
9422;SDS011;65863;49.506;10.400;2023-06-10T01:35:25;6.77;;;5.83;;
9422;SDS011;65863;49.506;10.400;2023-06-10T01:38:12;7.87;;;6.10;;
9422;SDS011;65863;49.506;10.400;2023-06-10T01:40:58;6.53;;;5.90;;
9422;SDS011;65863;49.506;10.400;2023-06-10T01:43:44;7.27;;;5.37;;
9422;SDS011;65863;49.506;10.400;2023-06-10T01:46:31;6.50;;;5.60;;
9422;SDS011;65863;49.506;10.400;2023-06-10T01:49:15;6.40;;;5.63;;
9422;SDS011;65863;49.506;10.400;2023-06-10T01:52:01;6.97;;;6.00;;
9422;SDS011;65863;49.506;10.400;2023-06-10T01:54:45;6.83;;;5.37;;
9422;SDS011;65863;49.506;10.400;2023-06-10T01:57:29;6.83;;;5.80;;
9422;SDS011;65863;49.506;10.400;2023-06-10T02:00:13;6.03;;;5.43;;
9422;SDS011;65863;49.506;10.400;2023-06-10T02:03:02;6.67;;;5.70;;
9422;SDS011;65863;49.506;10.400;2023-06-10T02:05:46;7.73;;;5.70;;
9422;SDS011;65863;49.506;10.400;2023-06-10T02:08:30;6.13;;;5.00;;
9422;SDS011;65863;49.506;10.400;2023-06-10T02:11:17;5.40;;;4.90;;
9422;SDS011;65863;49.506;10.400;2023-06-10T02:14:01;7.00;;;4.97;;
9422;SDS011;65863;49.506;10.400;2023-06-10T02:16:45;6.30;;;5.23;;
9422;SDS011;65863;49.506;10.400;2023-06-10T02:19:30;6.00;;;5.20;;
9422;SDS011;65863;49.506;10.400;2023-06-10T02:22:14;6.63;;;5.13;;
9422;SDS011;65863;49.506;10.400;2023-06-10T02:24:58;5.27;;;4.77;;
9422;SDS011;65863;49.506;10.400;2023-06-10T02:27:42;5.43;;;4.93;;
9422;SDS011;65863;49.506;10.400;2023-06-10T02:30:26;5.80;;;5.20;;
9422;SDS011;65863;49.506;10.400;2023-06-10T02:33:10;5.97;;;5.33;;
9422;SDS011;65863;49.506;10.400;2023-06-10T02:35:55;6.60;;;5.33;;
9422;SDS011;65863;49.506;10.400;2023-06-10T02:38:41;7.60;;;5.87;;
9422;SDS011;65863;49.506;10.400;2023-06-10T02:41:26;5.60;;;4.80;;
9422;SDS011;65863;49.506;10.400;2023-06-10T02:44:11;5.90;;;5.10;;
9422;SDS011;65863;49.506;10.400;2023-06-10T02:46:56;6.97;;;5.30;;
9422;SDS011;65863;49.506;10.400;2023-06-10T02:49:41;5.60;;;5.10;;
9422;SDS011;65863;49.506;10.400;2023-06-10T02:52:27;5.63;;;4.93;;
9422;SDS011;65863;49.506;10.400;2023-06-10T02:55:11;5.80;;;4.73;;
9422;SDS011;65863;49.506;10.400;2023-06-10T02:57:57;9.20;;;5.30;;
9422;SDS011;65863;49.506;10.400;2023-06-10T03:00:43;6.77;;;5.30;;
9422;SDS011;65863;49.506;10.400;2023-06-10T03:03:29;7.27;;;5.43;;
9422;SDS011;65863;49.506;10.400;2023-06-10T03:06:26;5.60;;;4.80;;
9422;SDS011;65863;49.506;10.400;2023-06-10T03:09:15;6.37;;;5.47;;
9422;SDS011;65863;49.506;10.400;2023-06-10T03:12:01;6.33;;;5.40;;
9422;SDS011;65863;49.506;10.400;2023-06-10T03:14:48;5.63;;;5.07;;
9422;SDS011;65863;49.506;10.400;2023-06-10T03:17:34;6.60;;;5.37;;
9422;SDS011;65863;49.506;10.400;2023-06-10T03:20:18;6.10;;;5.30;;
9422;SDS011;65863;49.506;10.400;2023-06-10T03:23:04;7.03;;;5.50;;
9422;SDS011;65863;49.506;10.400;2023-06-10T03:25:51;6.40;;;5.67;;
9422;SDS011;65863;49.506;10.400;2023-06-10T03:28:37;5.87;;;5.27;;
9422;SDS011;65863;49.506;10.400;2023-06-10T03:31:21;6.20;;;5.50;;
9422;SDS011;65863;49.506;10.400;2023-06-10T03:34:06;6.63;;;5.60;;
9422;SDS011;65863;49.506;10.400;2023-06-10T03:36:50;8.57;;;5.97;;
9422;SDS011;65863;49.506;10.400;2023-06-10T03:39:34;7.17;;;6.00;;
9422;SDS011;65863;49.506;10.400;2023-06-10T03:42:19;6.73;;;5.70;;
9422;SDS011;65863;49.506;10.400;2023-06-10T03:45:04;6.07;;;5.47;;
9422;SDS011;65863;49.506;10.400;2023-06-10T03:47:51;6.80;;;6.00;;
9422;SDS011;65863;49.506;10.400;2023-06-10T03:50:39;6.43;;;5.60;;
9422;SDS011;65863;49.506;10.400;2023-06-10T03:53:23;7.67;;;5.83;;
9422;SDS011;65863;49.506;10.400;2023-06-10T03:56:08;5.70;;;5.10;;
9422;SDS011;65863;49.506;10.400;2023-06-10T03:58:52;5.27;;;4.73;;
9422;SDS011;65863;49.506;10.400;2023-06-10T04:01:36;5.80;;;4.83;;
9422;SDS011;65863;49.506;10.400;2023-06-10T04:04:21;5.40;;;4.90;;
9422;SDS011;65863;49.506;10.400;2023-06-10T04:07:05;6.17;;;4.97;;
9422;SDS011;65863;49.506;10.400;2023-06-10T04:09:50;6.57;;;5.13;;
9422;SDS011;65863;49.506;10.400;2023-06-10T04:12:35;4.90;;;4.43;;
9422;SDS011;65863;49.506;10.400;2023-06-10T04:15:19;4.50;;;4.10;;
9422;SDS011;65863;49.506;10.400;2023-06-10T04:18:04;5.20;;;4.63;;
9422;SDS011;65863;49.506;10.400;2023-06-10T04:20:48;8.43;;;5.60;;
9422;SDS011;65863;49.506;10.400;2023-06-10T04:23:33;6.57;;;5.17;;
9422;SDS011;65863;49.506;10.400;2023-06-10T04:26:17;6.60;;;5.30;;
9422;SDS011;65863;49.506;10.400;2023-06-10T04:29:01;5.47;;;4.97;;
9422;SDS011;65863;49.506;10.400;2023-06-10T04:31:47;6.73;;;5.60;;
9422;SDS011;65863;49.506;10.400;2023-06-10T04:34:31;5.93;;;5.33;;
9422;SDS011;65863;49.506;10.400;2023-06-10T04:37:16;6.03;;;5.43;;
9422;SDS011;65863;49.506;10.400;2023-06-10T04:40:00;5.97;;;5.37;;
9422;SDS011;65863;49.506;10.400;2023-06-10T04:42:46;6.83;;;6.00;;
9422;SDS011;65863;49.506;10.400;2023-06-10T04:45:30;7.23;;;6.27;;
9422;SDS011;65863;49.506;10.400;2023-06-10T04:48:15;6.70;;;5.97;;
9422;SDS011;65863;49.506;10.400;2023-06-10T04:51:00;7.43;;;6.73;;
9422;SDS011;65863;49.506;10.400;2023-06-10T04:53:44;6.93;;;6.17;;
9422;SDS011;65863;49.506;10.400;2023-06-10T04:56:29;7.57;;;6.00;;
9422;SDS011;65863;49.506;10.400;2023-06-10T04:59:13;7.40;;;6.67;;
9422;SDS011;65863;49.506;10.400;2023-06-10T05:01:58;7.23;;;6.33;;
9422;SDS011;65863;49.506;10.400;2023-06-10T05:04:42;8.50;;;7.00;;
9422;SDS011;65863;49.506;10.400;2023-06-10T05:07:26;7.87;;;7.07;;
9422;SDS011;65863;49.506;10.400;2023-06-10T05:10:10;7.70;;;6.90;;
9422;SDS011;65863;49.506;10.400;2023-06-10T05:12:55;8.57;;;6.53;;
9422;SDS011;65863;49.506;10.400;2023-06-10T05:15:39;6.73;;;6.10;;
9422;SDS011;65863;49.506;10.400;2023-06-10T05:18:28;5.53;;;4.97;;
9422;SDS011;65863;49.506;10.400;2023-06-10T05:21:12;5.90;;;5.30;;
9422;SDS011;65863;49.506;10.400;2023-06-10T05:23:56;6.57;;;5.37;;
9422;SDS011;65863;49.506;10.400;2023-06-10T05:26:40;6.70;;;5.37;;
9422;SDS011;65863;49.506;10.400;2023-06-10T05:29:25;5.90;;;5.00;;
9422;SDS011;65863;49.506;10.400;2023-06-10T05:32:09;4.97;;;4.47;;
9422;SDS011;65863;49.506;10.400;2023-06-10T05:34:53;7.23;;;4.60;;
9422;SDS011;65863;49.506;10.400;2023-06-10T05:37:37;5.33;;;4.83;;
9422;SDS011;65863;49.506;10.400;2023-06-10T05:40:22;4.83;;;4.33;;
9422;SDS011;65863;49.506;10.400;2023-06-10T05:43:06;5.03;;;4.53;;
9422;SDS011;65863;49.506;10.400;2023-06-10T05:45:50;5.20;;;4.70;;
9422;SDS011;65863;49.506;10.400;2023-06-10T05:48:34;5.20;;;4.67;;
9422;SDS011;65863;49.506;10.400;2023-06-10T05:51:18;6.37;;;4.30;;
9422;SDS011;65863;49.506;10.400;2023-06-10T05:54:01;4.63;;;4.23;;
9422;SDS011;65863;49.506;10.400;2023-06-10T05:56:46;4.77;;;4.27;;
9422;SDS011;65863;49.506;10.400;2023-06-10T05:59:29;4.90;;;4.40;;
9422;SDS011;65863;49.506;10.400;2023-06-10T06:02:13;4.30;;;3.90;;
9422;SDS011;65863;49.506;10.400;2023-06-10T06:04:58;4.53;;;4.00;;
9422;SDS011;65863;49.506;10.400;2023-06-10T06:07:42;4.40;;;3.95;;
9422;SDS011;65863;49.506;10.400;2023-06-10T06:10:26;4.73;;;3.47;;
9422;SDS011;65863;49.506;10.400;2023-06-10T06:13:10;5.57;;;3.70;;
9422;SDS011;65863;49.506;10.400;2023-06-10T06:15:54;4.17;;;3.77;;
9422;SDS011;65863;49.506;10.400;2023-06-10T06:18:38;4.47;;;3.80;;
9422;SDS011;65863;49.506;10.400;2023-06-10T06:21:22;6.50;;;4.30;;
9422;SDS011;65863;49.506;10.400;2023-06-10T06:24:06;4.80;;;4.30;;
9422;SDS011;65863;49.506;10.400;2023-06-10T06:26:51;4.90;;;4.40;;
9422;SDS011;65863;49.506;10.400;2023-06-10T06:29:35;4.23;;;3.93;;
9422;SDS011;65863;49.506;10.400;2023-06-10T06:32:19;5.70;;;4.53;;
9422;SDS011;65863;49.506;10.400;2023-06-10T06:35:03;4.57;;;4.13;;
9422;SDS011;65863;49.506;10.400;2023-06-10T06:37:49;4.50;;;4.10;;
9422;SDS011;65863;49.506;10.400;2023-06-10T06:40:41;4.60;;;4.20;;
9422;SDS011;65863;49.506;10.400;2023-06-10T06:43:26;4.83;;;4.33;;
9422;SDS011;65863;49.506;10.400;2023-06-10T06:46:15;4.70;;;4.30;;
9422;SDS011;65863;49.506;10.400;2023-06-10T06:48:59;6.07;;;4.70;;
9422;SDS011;65863;49.506;10.400;2023-06-10T06:51:43;5.10;;;4.60;;
9422;SDS011;65863;49.506;10.400;2023-06-10T06:54:27;7.03;;;4.37;;
9422;SDS011;65863;49.506;10.400;2023-06-10T06:57:11;5.30;;;4.27;;
9422;SDS011;65863;49.506;10.400;2023-06-10T06:59:55;4.30;;;3.90;;
9422;SDS011;65863;49.506;10.400;2023-06-10T07:02:39;5.17;;;4.53;;
9422;SDS011;65863;49.506;10.400;2023-06-10T07:05:23;5.03;;;4.53;;
9422;SDS011;65863;49.506;10.400;2023-06-10T07:08:10;4.90;;;4.40;;
9422;SDS011;65863;49.506;10.400;2023-06-10T07:10:55;6.33;;;4.50;;
9422;SDS011;65863;49.506;10.400;2023-06-10T07:13:41;6.10;;;5.20;;
9422;SDS011;65863;49.506;10.400;2023-06-10T07:16:25;4.70;;;4.30;;
9422;SDS011;65863;49.506;10.400;2023-06-10T07:19:09;4.80;;;4.40;;
9422;SDS011;65863;49.506;10.400;2023-06-10T07:21:53;5.37;;;4.87;;
9422;SDS011;65863;49.506;10.400;2023-06-10T07:24:37;4.47;;;4.07;;
9422;SDS011;65863;49.506;10.400;2023-06-10T07:27:21;5.13;;;4.63;;
9422;SDS011;65863;49.506;10.400;2023-06-10T07:30:05;5.10;;;4.60;;
9422;SDS011;65863;49.506;10.400;2023-06-10T07:32:51;6.43;;;5.73;;
9422;SDS011;65863;49.506;10.400;2023-06-10T07:35:35;5.87;;;4.80;;
9422;SDS011;65863;49.506;10.400;2023-06-10T07:38:19;5.70;;;5.10;;
9422;SDS011;65863;49.506;10.400;2023-06-10T07:41:04;5.30;;;4.80;;
9422;SDS011;65863;49.506;10.400;2023-06-10T07:43:48;5.00;;;4.27;;
9422;SDS011;65863;49.506;10.400;2023-06-10T07:46:37;5.30;;;4.80;;
9422;SDS011;65863;49.506;10.400;2023-06-10T07:49:22;4.93;;;4.40;;
9422;SDS011;65863;49.506;10.400;2023-06-10T07:52:06;4.83;;;4.33;;
9422;SDS011;65863;49.506;10.400;2023-06-10T07:54:50;5.20;;;4.70;;
9422;SDS011;65863;49.506;10.400;2023-06-10T07:57:35;4.37;;;3.97;;
9422;SDS011;65863;49.506;10.400;2023-06-10T08:00:20;4.40;;;4.00;;
9422;SDS011;65863;49.506;10.400;2023-06-10T08:03:05;4.40;;;4.00;;
9422;SDS011;65863;49.506;10.400;2023-06-10T08:05:49;4.30;;;3.90;;
9422;SDS011;65863;49.506;10.400;2023-06-10T08:08:33;4.73;;;3.93;;
9422;SDS011;65863;49.506;10.400;2023-06-10T08:11:18;4.30;;;3.83;;
9422;SDS011;65863;49.506;10.400;2023-06-10T08:14:02;4.00;;;3.60;;
9422;SDS011;65863;49.506;10.400;2023-06-10T08:16:46;4.47;;;4.07;;
9422;SDS011;65863;49.506;10.400;2023-06-10T08:19:30;3.90;;;3.60;;
9422;SDS011;65863;49.506;10.400;2023-06-10T08:22:14;6.00;;;3.90;;
9422;SDS011;65863;49.506;10.400;2023-06-10T08:24:58;5.20;;;4.33;;
9422;SDS011;65863;49.506;10.400;2023-06-10T08:27:43;6.30;;;4.17;;
9422;SDS011;65863;49.506;10.400;2023-06-10T08:30:27;4.40;;;3.97;;
9422;SDS011;65863;49.506;10.400;2023-06-10T08:33:11;3.80;;;3.50;;
9422;SDS011;65863;49.506;10.400;2023-06-10T08:35:55;4.50;;;4.00;;
9422;SDS011;65863;49.506;10.400;2023-06-10T08:38:38;7.33;;;4.63;;
9422;SDS011;65863;49.506;10.400;2023-06-10T08:41:23;4.60;;;3.87;;
9422;SDS011;65863;49.506;10.400;2023-06-10T08:47:02;3.80;;;3.50;;
9422;SDS011;65863;49.506;10.400;2023-06-10T08:49:50;3.77;;;3.33;;
9422;SDS011;65863;49.506;10.400;2023-06-10T08:52:36;3.30;;;2.83;;
9422;SDS011;65863;49.506;10.400;2023-06-10T08:55:23;2.87;;;2.67;;
9422;SDS011;65863;49.506;10.400;2023-06-10T08:58:12;5.27;;;3.30;;
9422;SDS011;65863;49.506;10.400;2023-06-10T09:00:56;3.00;;;2.80;;
9422;SDS011;65863;49.506;10.400;2023-06-10T09:03:41;4.83;;;3.03;;
9422;SDS011;65863;49.506;10.400;2023-06-10T09:06:25;3.40;;;2.93;;
9422;SDS011;65863;49.506;10.400;2023-06-10T09:09:10;3.73;;;2.90;;
9422;SDS011;65863;49.506;10.400;2023-06-10T09:11:56;2.87;;;2.63;;
9422;SDS011;65863;49.506;10.400;2023-06-10T09:14:40;2.90;;;2.70;;
9422;SDS011;65863;49.506;10.400;2023-06-10T09:17:26;3.13;;;2.83;;
9422;SDS011;65863;49.506;10.400;2023-06-10T09:20:11;2.17;;;1.97;;
9422;SDS011;65863;49.506;10.400;2023-06-10T09:22:55;2.27;;;2.07;;
9422;SDS011;65863;49.506;10.400;2023-06-10T09:25:39;2.80;;;2.60;;
9422;SDS011;65863;49.506;10.400;2023-06-10T09:28:24;2.23;;;2.10;;
9422;SDS011;65863;49.506;10.400;2023-06-10T09:31:08;3.53;;;2.30;;
9422;SDS011;65863;49.506;10.400;2023-06-10T09:33:53;3.57;;;2.30;;
9422;SDS011;65863;49.506;10.400;2023-06-10T09:36:37;2.40;;;2.20;;
9422;SDS011;65863;49.506;10.400;2023-06-10T09:39:22;2.40;;;2.20;;
9422;SDS011;65863;49.506;10.400;2023-06-10T09:42:16;3.33;;;3.00;;
9422;SDS011;65863;49.506;10.400;2023-06-10T09:45:04;3.20;;;2.90;;
9422;SDS011;65863;49.506;10.400;2023-06-10T09:47:53;2.80;;;2.50;;
9422;SDS011;65863;49.506;10.400;2023-06-10T09:50:41;2.30;;;2.10;;
9422;SDS011;65863;49.506;10.400;2023-06-10T09:53:26;3.10;;;2.57;;
9422;SDS011;65863;49.506;10.400;2023-06-10T09:56:11;2.67;;;2.47;;
9422;SDS011;65863;49.506;10.400;2023-06-10T09:58:55;2.53;;;2.33;;
9422;SDS011;65863;49.506;10.400;2023-06-10T10:01:39;2.43;;;2.23;;
9422;SDS011;65863;49.506;10.400;2023-06-10T10:04:24;2.70;;;2.50;;
9422;SDS011;65863;49.506;10.400;2023-06-10T10:07:09;2.60;;;2.40;;
9422;SDS011;65863;49.506;10.400;2023-06-10T10:09:54;2.83;;;2.63;;
9422;SDS011;65863;49.506;10.400;2023-06-10T10:12:38;2.40;;;2.20;;
9422;SDS011;65863;49.506;10.400;2023-06-10T10:15:23;2.50;;;2.30;;
9422;SDS011;65863;49.506;10.400;2023-06-10T10:18:09;2.30;;;2.10;;
9422;SDS011;65863;49.506;10.400;2023-06-10T10:20:55;2.37;;;2.17;;
9422;SDS011;65863;49.506;10.400;2023-06-10T10:26:46;2.20;;;2.10;;
9422;SDS011;65863;49.506;10.400;2023-06-10T10:29:37;3.47;;;2.53;;
9422;SDS011;65863;49.506;10.400;2023-06-10T10:32:24;2.40;;;2.20;;
9422;SDS011;65863;49.506;10.400;2023-06-10T10:35:20;2.40;;;2.20;;
9422;SDS011;65863;49.506;10.400;2023-06-10T10:38:07;2.20;;;2.00;;
9422;SDS011;65863;49.506;10.400;2023-06-10T10:40:51;2.07;;;1.97;;
9422;SDS011;65863;49.506;10.400;2023-06-10T10:43:36;2.00;;;1.90;;
9422;SDS011;65863;49.506;10.400;2023-06-10T10:46:21;3.53;;;2.10;;
9422;SDS011;65863;49.506;10.400;2023-06-10T10:49:05;2.20;;;2.00;;
9422;SDS011;65863;49.506;10.400;2023-06-10T10:51:57;3.63;;;2.37;;
9422;SDS011;65863;49.506;10.400;2023-06-10T10:54:45;2.60;;;2.20;;
9422;SDS011;65863;49.506;10.400;2023-06-10T10:57:30;2.20;;;2.00;;
9422;SDS011;65863;49.506;10.400;2023-06-10T11:00:14;2.73;;;2.20;;
9422;SDS011;65863;49.506;10.400;2023-06-10T11:03:15;3.83;;;1.93;;
9422;SDS011;65863;49.506;10.400;2023-06-10T11:06:00;1.90;;;1.73;;
9422;SDS011;65863;49.506;10.400;2023-06-10T11:08:49;2.50;;;2.30;;
9422;SDS011;65863;49.506;10.400;2023-06-10T11:11:33;2.10;;;1.90;;
9422;SDS011;65863;49.506;10.400;2023-06-10T11:14:26;2.40;;;2.20;;
9422;SDS011;65863;49.506;10.400;2023-06-10T11:17:18;2.20;;;2.00;;
9422;SDS011;65863;49.506;10.400;2023-06-10T11:20:03;3.17;;;2.10;;
9422;SDS011;65863;49.506;10.400;2023-06-10T11:22:58;1.90;;;1.80;;
9422;SDS011;65863;49.506;10.400;2023-06-10T11:25:42;2.07;;;1.90;;
9422;SDS011;65863;49.506;10.400;2023-06-10T11:28:27;1.80;;;1.70;;
9422;SDS011;65863;49.506;10.400;2023-06-10T11:31:22;2.43;;;2.03;;
9422;SDS011;65863;49.506;10.400;2023-06-10T11:34:07;2.00;;;1.90;;
9422;SDS011;65863;49.506;10.400;2023-06-10T11:36:52;2.07;;;1.90;;
9422;SDS011;65863;49.506;10.400;2023-06-10T11:39:36;2.00;;;1.90;;
9422;SDS011;65863;49.506;10.400;2023-06-10T11:42:21;1.83;;;1.73;;
9422;SDS011;65863;49.506;10.400;2023-06-10T11:45:06;1.90;;;1.80;;
9422;SDS011;65863;49.506;10.400;2023-06-10T11:47:58;2.13;;;1.93;;
9422;SDS011;65863;49.506;10.400;2023-06-10T11:50:43;3.07;;;1.80;;
9422;SDS011;65863;49.506;10.400;2023-06-10T11:53:27;1.90;;;1.70;;
9422;SDS011;65863;49.506;10.400;2023-06-10T11:56:11;1.97;;;1.77;;
9422;SDS011;65863;49.506;10.400;2023-06-10T11:58:56;1.47;;;1.37;;
9422;SDS011;65863;49.506;10.400;2023-06-10T12:01:56;1.70;;;1.60;;
9422;SDS011;65863;49.506;10.400;2023-06-10T12:04:41;1.70;;;1.60;;
9422;SDS011;65863;49.506;10.400;2023-06-10T12:07:25;2.00;;;1.70;;
9422;SDS011;65863;49.506;10.400;2023-06-10T12:10:09;1.70;;;1.60;;
9422;SDS011;65863;49.506;10.400;2023-06-10T12:12:53;2.07;;;1.90;;
9422;SDS011;65863;49.506;10.400;2023-06-10T12:15:37;1.67;;;1.57;;
9422;SDS011;65863;49.506;10.400;2023-06-10T12:18:22;1.80;;;1.70;;
9422;SDS011;65863;49.506;10.400;2023-06-10T12:21:19;1.60;;;1.50;;
9422;SDS011;65863;49.506;10.400;2023-06-10T12:26:53;1.93;;;1.50;;
9422;SDS011;65863;49.506;10.400;2023-06-10T12:29:39;1.87;;;1.77;;
9422;SDS011;65863;49.506;10.400;2023-06-10T12:35:28;1.67;;;1.57;;
9422;SDS011;65863;49.506;10.400;2023-06-10T12:38:12;2.07;;;1.80;;
9422;SDS011;65863;49.506;10.400;2023-06-10T12:41:01;1.93;;;1.83;;
9422;SDS011;65863;49.506;10.400;2023-06-10T12:43:46;1.80;;;1.70;;
9422;SDS011;65863;49.506;10.400;2023-06-10T12:46:35;1.80;;;1.70;;
9422;SDS011;65863;49.506;10.400;2023-06-10T12:49:20;1.70;;;1.60;;
9422;SDS011;65863;49.506;10.400;2023-06-10T12:52:05;1.83;;;1.73;;
9422;SDS011;65863;49.506;10.400;2023-06-10T12:54:50;2.10;;;1.90;;
9422;SDS011;65863;49.506;10.400;2023-06-10T12:57:35;1.70;;;1.60;;
9422;SDS011;65863;49.506;10.400;2023-06-10T13:00:19;1.70;;;1.60;;
9422;SDS011;65863;49.506;10.400;2023-06-10T13:03:04;1.80;;;1.70;;
9422;SDS011;65863;49.506;10.400;2023-06-10T13:05:51;2.87;;;1.90;;
9422;SDS011;65863;49.506;10.400;2023-06-10T13:08:35;1.83;;;1.73;;
9422;SDS011;65863;49.506;10.400;2023-06-10T13:11:19;1.70;;;1.60;;
9422;SDS011;65863;49.506;10.400;2023-06-10T13:14:05;1.90;;;1.70;;
9422;SDS011;65863;49.506;10.400;2023-06-10T13:16:50;2.50;;;1.70;;
9422;SDS011;65863;49.506;10.400;2023-06-10T13:19:34;1.90;;;1.80;;
9422;SDS011;65863;49.506;10.400;2023-06-10T13:22:18;2.30;;;2.07;;
9422;SDS011;65863;49.506;10.400;2023-06-10T13:25:04;2.13;;;1.97;;
9422;SDS011;65863;49.506;10.400;2023-06-10T13:27:50;1.97;;;1.87;;
9422;SDS011;65863;49.506;10.400;2023-06-10T13:30:34;1.80;;;1.70;;
9422;SDS011;65863;49.506;10.400;2023-06-10T13:33:19;1.70;;;1.60;;
9422;SDS011;65863;49.506;10.400;2023-06-10T13:36:03;2.67;;;1.80;;
9422;SDS011;65863;49.506;10.400;2023-06-10T13:38:47;1.70;;;1.60;;
9422;SDS011;65863;49.506;10.400;2023-06-10T13:41:32;1.87;;;1.70;;
9422;SDS011;65863;49.506;10.400;2023-06-10T13:44:16;1.87;;;1.77;;
9422;SDS011;65863;49.506;10.400;2023-06-10T13:47:00;2.13;;;2.00;;
9422;SDS011;65863;49.506;10.400;2023-06-10T13:49:44;2.50;;;1.90;;
9422;SDS011;65863;49.506;10.400;2023-06-10T13:52:28;1.80;;;1.70;;
9422;SDS011;65863;49.506;10.400;2023-06-10T13:55:12;1.80;;;1.70;;
9422;SDS011;65863;49.506;10.400;2023-06-10T13:57:56;1.80;;;1.70;;
9422;SDS011;65863;49.506;10.400;2023-06-10T14:00:41;1.90;;;1.73;;
9422;SDS011;65863;49.506;10.400;2023-06-10T14:03:25;1.43;;;1.33;;
9422;SDS011;65863;49.506;10.400;2023-06-10T14:06:09;2.00;;;1.57;;
9422;SDS011;65863;49.506;10.400;2023-06-10T14:08:53;1.60;;;1.50;;
9422;SDS011;65863;49.506;10.400;2023-06-10T14:11:40;1.80;;;1.70;;
9422;SDS011;65863;49.506;10.400;2023-06-10T14:14:25;1.80;;;1.70;;
9422;SDS011;65863;49.506;10.400;2023-06-10T14:17:09;2.30;;;1.93;;
9422;SDS011;65863;49.506;10.400;2023-06-10T14:19:53;1.80;;;1.70;;
9422;SDS011;65863;49.506;10.400;2023-06-10T14:22:37;1.93;;;1.50;;
9422;SDS011;65863;49.506;10.400;2023-06-10T14:25:21;1.73;;;1.63;;
9422;SDS011;65863;49.506;10.400;2023-06-10T14:28:05;1.60;;;1.50;;
9422;SDS011;65863;49.506;10.400;2023-06-10T14:30:49;1.80;;;1.70;;
9422;SDS011;65863;49.506;10.400;2023-06-10T14:33:33;1.90;;;1.80;;
9422;SDS011;65863;49.506;10.400;2023-06-10T14:36:18;2.97;;;1.73;;
9422;SDS011;65863;49.506;10.400;2023-06-10T14:39:02;1.60;;;1.50;;
9422;SDS011;65863;49.506;10.400;2023-06-10T14:41:46;1.73;;;1.63;;
9422;SDS011;65863;49.506;10.400;2023-06-10T14:44:31;1.60;;;1.50;;
9422;SDS011;65863;49.506;10.400;2023-06-10T14:47:15;1.93;;;1.83;;
9422;SDS011;65863;49.506;10.400;2023-06-10T14:49:59;3.00;;;1.60;;
9422;SDS011;65863;49.506;10.400;2023-06-10T14:52:46;1.60;;;1.50;;
9422;SDS011;65863;49.506;10.400;2023-06-10T14:55:30;1.60;;;1.50;;
9422;SDS011;65863;49.506;10.400;2023-06-10T14:58:15;1.80;;;1.70;;
9422;SDS011;65863;49.506;10.400;2023-06-10T15:00:59;2.03;;;1.87;;
9422;SDS011;65863;49.506;10.400;2023-06-10T15:03:43;1.63;;;1.50;;
9422;SDS011;65863;49.506;10.400;2023-06-10T15:06:28;1.80;;;1.70;;
9422;SDS011;65863;49.506;10.400;2023-06-10T15:09:12;1.63;;;1.53;;
9422;SDS011;65863;49.506;10.400;2023-06-10T15:11:56;1.63;;;1.53;;
9422;SDS011;65863;49.506;10.400;2023-06-10T15:14:39;1.35;;;1.23;;
9422;SDS011;65863;49.506;10.400;2023-06-10T15:17:24;1.70;;;1.60;;
9422;SDS011;65863;49.506;10.400;2023-06-10T15:20:08;1.70;;;1.60;;
9422;SDS011;65863;49.506;10.400;2023-06-10T15:22:52;1.40;;;1.30;;
9422;SDS011;65863;49.506;10.400;2023-06-10T15:25:37;1.57;;;1.47;;
9422;SDS011;65863;49.506;10.400;2023-06-10T15:28:24;1.60;;;1.50;;
9422;SDS011;65863;49.506;10.400;2023-06-10T15:31:08;1.90;;;1.80;;
9422;SDS011;65863;49.506;10.400;2023-06-10T15:33:52;1.80;;;1.70;;
9422;SDS011;65863;49.506;10.400;2023-06-10T15:36:36;1.60;;;1.50;;
9422;SDS011;65863;49.506;10.400;2023-06-10T15:39:20;1.97;;;1.50;;
9422;SDS011;65863;49.506;10.400;2023-06-10T15:42:04;1.70;;;1.60;;
9422;SDS011;65863;49.506;10.400;2023-06-10T15:44:48;1.63;;;1.53;;
9422;SDS011;65863;49.506;10.400;2023-06-10T15:47:32;2.53;;;2.20;;
9422;SDS011;65863;49.506;10.400;2023-06-10T15:50:17;2.30;;;2.10;;
9422;SDS011;65863;49.506;10.400;2023-06-10T15:53:01;2.63;;;2.43;;
9422;SDS011;65863;49.506;10.400;2023-06-10T15:55:45;2.63;;;2.43;;
9422;SDS011;65863;49.506;10.400;2023-06-10T15:58:29;2.90;;;2.70;;
9422;SDS011;65863;49.506;10.400;2023-06-10T16:01:14;3.07;;;2.77;;
9422;SDS011;65863;49.506;10.400;2023-06-10T16:03:58;2.90;;;2.60;;
9422;SDS011;65863;49.506;10.400;2023-06-10T16:06:42;4.33;;;2.63;;
9422;SDS011;65863;49.506;10.400;2023-06-10T16:09:26;2.50;;;2.20;;
9422;SDS011;65863;49.506;10.400;2023-06-10T16:12:10;2.50;;;2.30;;
9422;SDS011;65863;49.506;10.400;2023-06-10T16:14:54;1.93;;;1.83;;
9422;SDS011;65863;49.506;10.400;2023-06-10T16:17:38;7.47;;;2.40;;
9422;SDS011;65863;49.506;10.400;2023-06-10T16:20:22;2.83;;;2.20;;
9422;SDS011;65863;49.506;10.400;2023-06-10T16:23:06;2.33;;;2.13;;
9422;SDS011;65863;49.506;10.400;2023-06-10T16:25:50;1.87;;;1.77;;
9422;SDS011;65863;49.506;10.400;2023-06-10T16:28:35;1.90;;;1.80;;
9422;SDS011;65863;49.506;10.400;2023-06-10T16:31:18;1.67;;;1.57;;
9422;SDS011;65863;49.506;10.400;2023-06-10T16:34:02;2.07;;;1.90;;
9422;SDS011;65863;49.506;10.400;2023-06-10T16:36:46;2.00;;;1.90;;
9422;SDS011;65863;49.506;10.400;2023-06-10T16:39:31;4.97;;;2.57;;
9422;SDS011;65863;49.506;10.400;2023-06-10T16:42:15;4.20;;;3.10;;
9422;SDS011;65863;49.506;10.400;2023-06-10T16:44:59;4.97;;;3.30;;
9422;SDS011;65863;49.506;10.400;2023-06-10T16:47:42;3.40;;;3.10;;